Terminal Aerodrome Forecast
Issued by NWS

Home | Current Version | Previous Version | Text Only | Print | Product List | Glossary On
Versions: 1 2 3 4 5 6 7 8 9 10 11 12
000
FTPA31 PHFO 201736
TAFHJH
TAF
PHJH 201736Z 2018/2118 03018G25KT P6SM VCSH FEW025 SCT040
     FM210500 03014G22KT P6SM VCSH FEW025 SCT040
      AMD NOT SKED AFT 210400=

USA.gov is the U.S. government's official web portal to all federal, state and local government web resources and services.